Indian Village, Louisiana
Current Conditions -  °F | °C
As of 5:55 PM on Friday 31 Oct 2014 (Local Time) from KRSN Reporting Station
Scattered Clouds Scattered Clouds  
Wind Chill: 62°   Ceiling: Unl
Heat Index: 62°   Visibility: 10mi
Dew Point: 45°   Wind: 8mph
Humidity: 53%   Direction: 360°N
Pressure: 30.23"   Gusts: NA
Location:  32.5064°N, 92.3457°W
Report Text: KRSN 312255Z AUTO 36007KT 10SM SCT050 17/07 A3023 RMK AO2 T01690072
Loading
Personal Weather Stations






























Interactive Weather Map
Tropical Storm Tracking
New forecast layout! Learn more

10-Day Weather Forecast

Advertisements
Track Severe Weather on mobile